sensor_id;sensor_type;location;lat;lon;timestamp;pressure;altitude;pressure_sealevel;temperature;humidity
12973;BME280;6551;51.056;9.466;2024-03-06T00:01:35;97640.50;;;15.62;60.46
12973;BME280;6551;51.056;9.466;2024-03-06T00:04:03;97646.75;;;15.68;60.43
12973;BME280;6551;51.056;9.466;2024-03-06T00:06:29;97653.38;;;15.60;60.28
12973;BME280;6551;51.056;9.466;2024-03-06T00:08:56;97651.78;;;15.64;60.24
12973;BME280;6551;51.056;9.466;2024-03-06T00:11:21;97649.66;;;15.66;60.08
12973;BME280;6551;51.056;9.466;2024-03-06T00:13:47;97655.91;;;15.72;60.38
12973;BME280;6551;51.056;9.466;2024-03-06T00:16:14;97650.34;;;15.78;60.28
12973;BME280;6551;51.056;9.466;2024-03-06T00:18:39;97660.25;;;15.78;60.24
12973;BME280;6551;51.056;9.466;2024-03-06T00:21:06;97651.66;;;15.76;60.20
12973;BME280;6551;51.056;9.466;2024-03-06T00:23:32;97659.28;;;15.62;59.77
12973;BME280;6551;51.056;9.466;2024-03-06T00:25:58;97655.97;;;15.55;59.71
12973;BME280;6551;51.056;9.466;2024-03-06T00:28:23;97663.97;;;15.50;60.10
12973;BME280;6551;51.056;9.466;2024-03-06T00:30:49;97665.28;;;15.48;60.03
12973;BME280;6551;51.056;9.466;2024-03-06T00:33:16;97665.03;;;15.49;60.29
12973;BME280;6551;51.056;9.466;2024-03-06T00:35:42;97665.53;;;15.46;60.41
12973;BME280;6551;51.056;9.466;2024-03-06T00:38:09;97670.66;;;15.48;60.33
12973;BME280;6551;51.056;9.466;2024-03-06T00:40:34;97670.72;;;15.36;60.41
12973;BME280;6551;51.056;9.466;2024-03-06T00:43:00;97672.31;;;15.32;60.35
12973;BME280;6551;51.056;9.466;2024-03-06T00:45:25;97678.16;;;15.29;60.53
12973;BME280;6551;51.056;9.466;2024-03-06T00:47:51;97671.31;;;15.21;60.80
12973;BME280;6551;51.056;9.466;2024-03-06T00:50:17;97685.31;;;15.23;60.84
12973;BME280;6551;51.056;9.466;2024-03-06T00:52:44;97678.09;;;15.24;61.06
12973;BME280;6551;51.056;9.466;2024-03-06T00:55:10;97677.22;;;15.18;60.84
12973;BME280;6551;51.056;9.466;2024-03-06T00:57:36;97674.16;;;15.10;60.59
12973;BME280;6551;51.056;9.466;2024-03-06T01:00:04;97678.44;;;15.11;60.84
12973;BME280;6551;51.056;9.466;2024-03-06T01:02:37;97678.03;;;15.02;60.88
12973;BME280;6551;51.056;9.466;2024-03-06T01:05:06;97676.84;;;14.93;61.00
12973;BME280;6551;51.056;9.466;2024-03-06T01:07:37;97691.63;;;14.96;60.88
12973;BME280;6551;51.056;9.466;2024-03-06T01:10:05;97691.56;;;14.91;61.31
12973;BME280;6551;51.056;9.466;2024-03-06T01:12:33;97700.00;;;14.83;61.28
12973;BME280;6551;51.056;9.466;2024-03-06T01:14:59;97698.63;;;14.80;61.10
12973;BME280;6551;51.056;9.466;2024-03-06T01:17:24;97699.28;;;14.71;61.51
12973;BME280;6551;51.056;9.466;2024-03-06T01:19:52;97705.19;;;14.73;61.45
12973;BME280;6551;51.056;9.466;2024-03-06T01:22:18;97707.56;;;14.69;61.82
12973;BME280;6551;51.056;9.466;2024-03-06T01:24:44;97701.22;;;14.75;61.86
12973;BME280;6551;51.056;9.466;2024-03-06T01:27:11;97704.31;;;14.84;61.86
12973;BME280;6551;51.056;9.466;2024-03-06T01:29:37;97705.28;;;14.78;61.60
12973;BME280;6551;51.056;9.466;2024-03-06T01:32:03;97697.56;;;14.81;61.59
12973;BME280;6551;51.056;9.466;2024-03-06T01:34:29;97702.44;;;14.68;61.03
12973;BME280;6551;51.056;9.466;2024-03-06T01:36:55;97700.88;;;14.72;61.55
12973;BME280;6551;51.056;9.466;2024-03-06T01:39:21;97701.28;;;14.63;61.73
12973;BME280;6551;51.056;9.466;2024-03-06T01:41:51;97707.72;;;14.62;61.32
12973;BME280;6551;51.056;9.466;2024-03-06T01:44:18;97716.97;;;14.55;61.58
12973;BME280;6551;51.056;9.466;2024-03-06T01:46:45;97712.47;;;14.44;61.38
12973;BME280;6551;51.056;9.466;2024-03-06T01:49:12;97711.03;;;14.36;61.71
12973;BME280;6551;51.056;9.466;2024-03-06T01:51:40;97717.31;;;14.30;61.90
12973;BME280;6551;51.056;9.466;2024-03-06T01:54:08;97726.81;;;14.21;62.17
12973;BME280;6551;51.056;9.466;2024-03-06T01:56:36;97717.88;;;14.16;62.47
12973;BME280;6551;51.056;9.466;2024-03-06T01:59:04;97722.41;;;14.15;62.37
12973;BME280;6551;51.056;9.466;2024-03-06T02:01:31;97727.50;;;14.17;62.47
12973;BME280;6551;51.056;9.466;2024-03-06T02:03:59;97727.06;;;14.08;62.73
12973;BME280;6551;51.056;9.466;2024-03-06T02:06:25;97735.44;;;14.12;62.37
12973;BME280;6551;51.056;9.466;2024-03-06T02:08:52;97731.84;;;14.06;62.78
12973;BME280;6551;51.056;9.466;2024-03-06T02:11:18;97728.19;;;13.95;62.92
12973;BME280;6551;51.056;9.466;2024-03-06T02:13:45;97735.56;;;14.05;62.67
12973;BME280;6551;51.056;9.466;2024-03-06T02:16:10;97729.09;;;14.01;62.76
12973;BME280;6551;51.056;9.466;2024-03-06T02:18:37;97725.03;;;13.98;62.72
12973;BME280;6551;51.056;9.466;2024-03-06T02:21:05;97726.41;;;14.01;63.22
12973;BME280;6551;51.056;9.466;2024-03-06T02:23:32;97718.72;;;14.04;62.97
12973;BME280;6551;51.056;9.466;2024-03-06T02:25:58;97720.09;;;14.07;62.79
12973;BME280;6551;51.056;9.466;2024-03-06T02:28:24;97730.34;;;14.10;63.02
12973;BME280;6551;51.056;9.466;2024-03-06T02:30:51;97727.19;;;14.13;62.74
12973;BME280;6551;51.056;9.466;2024-03-06T02:33:16;97730.56;;;14.08;62.38
12973;BME280;6551;51.056;9.466;2024-03-06T02:35:44;97733.34;;;14.14;62.23
12973;BME280;6551;51.056;9.466;2024-03-06T02:38:11;97730.00;;;14.06;62.33
12973;BME280;6551;51.056;9.466;2024-03-06T02:40:37;97735.44;;;14.12;62.41
12973;BME280;6551;51.056;9.466;2024-03-06T02:43:04;97737.31;;;14.11;62.38
12973;BME280;6551;51.056;9.466;2024-03-06T02:45:30;97735.69;;;14.10;62.56
12973;BME280;6551;51.056;9.466;2024-03-06T02:47:55;97731.94;;;14.11;62.58
12973;BME280;6551;51.056;9.466;2024-03-06T02:50:21;97733.34;;;14.14;62.64
12973;BME280;6551;51.056;9.466;2024-03-06T02:52:48;97732.84;;;14.17;62.60
12973;BME280;6551;51.056;9.466;2024-03-06T02:55:14;97738.91;;;14.24;63.10
12973;BME280;6551;51.056;9.466;2024-03-06T02:57:40;97733.84;;;14.27;63.10
12973;BME280;6551;51.056;9.466;2024-03-06T03:00:07;97737.81;;;14.36;63.04
12973;BME280;6551;51.056;9.466;2024-03-06T03:02:39;97729.63;;;14.43;62.73
12973;BME280;6551;51.056;9.466;2024-03-06T03:05:05;97736.28;;;14.40;62.82
12973;BME280;6551;51.056;9.466;2024-03-06T03:07:31;97735.59;;;14.33;62.51
12973;BME280;6551;51.056;9.466;2024-03-06T03:09:57;97737.00;;;14.36;62.18
12973;BME280;6551;51.056;9.466;2024-03-06T03:12:23;97744.72;;;14.21;62.79
12973;BME280;6551;51.056;9.466;2024-03-06T03:14:48;97748.88;;;14.28;62.70
12973;BME280;6551;51.056;9.466;2024-03-06T03:17:14;97740.66;;;14.18;62.35
12973;BME280;6551;51.056;9.466;2024-03-06T03:19:40;97759.50;;;14.23;62.09
12973;BME280;6551;51.056;9.466;2024-03-06T03:22:06;97749.25;;;14.32;62.13
12973;BME280;6551;51.056;9.466;2024-03-06T03:24:33;97754.34;;;14.33;62.12
12973;BME280;6551;51.056;9.466;2024-03-06T03:26:59;97753.53;;;14.33;61.78
12973;BME280;6551;51.056;9.466;2024-03-06T03:29:25;97753.06;;;14.36;61.83
12973;BME280;6551;51.056;9.466;2024-03-06T03:31:50;97761.78;;;14.31;61.71
12973;BME280;6551;51.056;9.466;2024-03-06T03:34:17;97758.19;;;14.37;61.97
12973;BME280;6551;51.056;9.466;2024-03-06T03:36:43;97755.19;;;14.34;61.70
12973;BME280;6551;51.056;9.466;2024-03-06T03:39:12;97759.13;;;14.31;61.69
12973;BME280;6551;51.056;9.466;2024-03-06T03:41:47;97759.59;;;14.28;61.66
12973;BME280;6551;51.056;9.466;2024-03-06T03:44:16;97758.91;;;14.33;61.89
12973;BME280;6551;51.056;9.466;2024-03-06T03:46:42;97771.34;;;14.39;61.51
12973;BME280;6551;51.056;9.466;2024-03-06T03:49:09;97770.72;;;14.48;61.57
12973;BME280;6551;51.056;9.466;2024-03-06T03:51:36;97767.69;;;14.45;61.38
12973;BME280;6551;51.056;9.466;2024-03-06T03:54:04;97775.41;;;14.41;61.50
12973;BME280;6551;51.056;9.466;2024-03-06T03:56:30;97774.63;;;14.29;61.36
12973;BME280;6551;51.056;9.466;2024-03-06T03:58:57;97767.41;;;14.30;61.60
12973;BME280;6551;51.056;9.466;2024-03-06T04:01:25;97774.19;;;14.32;61.40
12973;BME280;6551;51.056;9.466;2024-03-06T04:03:51;97766.97;;;14.21;61.67
12973;BME280;6551;51.056;9.466;2024-03-06T04:06:18;97775.91;;;14.27;61.81
12973;BME280;6551;51.056;9.466;2024-03-06T04:08:45;97780.38;;;14.21;61.36
12973;BME280;6551;51.056;9.466;2024-03-06T04:11:12;97777.81;;;14.15;62.03
12973;BME280;6551;51.056;9.466;2024-03-06T04:13:38;97777.00;;;14.14;62.26
12973;BME280;6551;51.056;9.466;2024-03-06T04:16:05;97782.44;;;14.19;62.04
12973;BME280;6551;51.056;9.466;2024-03-06T04:18:32;97783.03;;;14.21;62.32
12973;BME280;6551;51.056;9.466;2024-03-06T04:21:07;97778.34;;;14.28;62.18
12973;BME280;6551;51.056;9.466;2024-03-06T04:23:34;97786.84;;;14.25;62.28
12973;BME280;6551;51.056;9.466;2024-03-06T04:26:01;97789.28;;;14.38;62.24
12973;BME280;6551;51.056;9.466;2024-03-06T04:28:27;97786.47;;;14.45;61.85
12973;BME280;6551;51.056;9.466;2024-03-06T04:30:54;97788.19;;;14.51;61.65
12973;BME280;6551;51.056;9.466;2024-03-06T04:33:20;97793.13;;;14.42;61.61
12973;BME280;6551;51.056;9.466;2024-03-06T04:35:46;97791.81;;;14.45;61.73
12973;BME280;6551;51.056;9.466;2024-03-06T04:38:11;97795.78;;;14.42;61.71
12973;BME280;6551;51.056;9.466;2024-03-06T04:40:37;97806.03;;;14.45;61.61
12973;BME280;6551;51.056;9.466;2024-03-06T04:43:03;97805.56;;;14.48;61.89
12973;BME280;6551;51.056;9.466;2024-03-06T04:45:29;97802.31;;;14.46;61.66
12973;BME280;6551;51.056;9.466;2024-03-06T04:47:55;97811.25;;;14.52;61.59
12973;BME280;6551;51.056;9.466;2024-03-06T04:50:21;97801.22;;;14.47;61.62
12973;BME280;6551;51.056;9.466;2024-03-06T04:52:47;97812.78;;;14.48;61.45
12973;BME280;6551;51.056;9.466;2024-03-06T04:55:13;97806.59;;;14.47;61.52
12973;BME280;6551;51.056;9.466;2024-03-06T04:57:43;97817.19;;;14.54;61.52
12973;BME280;6551;51.056;9.466;2024-03-06T05:00:10;97813.03;;;14.46;61.67
12973;BME280;6551;51.056;9.466;2024-03-06T05:02:36;97813.06;;;14.35;61.82
12973;BME280;6551;51.056;9.466;2024-03-06T05:05:03;97813.06;;;14.35;61.59
12973;BME280;6551;51.056;9.466;2024-03-06T05:07:32;97815.03;;;14.28;61.52
12973;BME280;6551;51.056;9.466;2024-03-06T05:09:59;97814.28;;;14.16;61.58
12973;BME280;6551;51.056;9.466;2024-03-06T05:12:26;97816.50;;;14.07;61.81
12973;BME280;6551;51.056;9.466;2024-03-06T05:14:53;97813.13;;;14.00;61.79
12973;BME280;6551;51.056;9.466;2024-03-06T05:17:19;97825.22;;;14.02;62.39
12973;BME280;6551;51.056;9.466;2024-03-06T05:19:46;97816.72;;;14.05;62.25
12973;BME280;6551;51.056;9.466;2024-03-06T05:22:14;97817.41;;;14.13;62.13
12973;BME280;6551;51.056;9.466;2024-03-06T05:24:42;97826.50;;;14.00;62.20
12973;BME280;6551;51.056;9.466;2024-03-06T05:27:08;97828.88;;;13.85;62.51
12973;BME280;6551;51.056;9.466;2024-03-06T05:29:35;97829.22;;;13.88;62.37
12973;BME280;6551;51.056;9.466;2024-03-06T05:32:03;97837.47;;;13.87;62.24
12973;BME280;6551;51.056;9.466;2024-03-06T05:34:29;97831.09;;;13.88;62.79
12973;BME280;6551;51.056;9.466;2024-03-06T05:36:55;97833.88;;;13.81;62.62
12973;BME280;6551;51.056;9.466;2024-03-06T05:39:21;97836.81;;;13.80;62.61
12973;BME280;6551;51.056;9.466;2024-03-06T05:41:47;97849.47;;;13.73;62.49
12973;BME280;6551;51.056;9.466;2024-03-06T05:44:13;97851.44;;;13.77;62.73
12973;BME280;6551;51.056;9.466;2024-03-06T05:46:40;97856.69;;;13.72;62.49
12973;BME280;6551;51.056;9.466;2024-03-06T05:49:06;97860.06;;;13.56;62.72
12973;BME280;6551;51.056;9.466;2024-03-06T05:51:32;97872.75;;;13.61;62.91
12973;BME280;6551;51.056;9.466;2024-03-06T05:53:57;97876.25;;;13.61;62.88
12973;BME280;6551;51.056;9.466;2024-03-06T05:56:23;97875.09;;;13.45;63.23
12973;BME280;6551;51.056;9.466;2024-03-06T05:58:49;97872.97;;;13.47;63.34
12973;BME280;6551;51.056;9.466;2024-03-06T06:01:17;97884.25;;;13.61;63.09
12973;BME280;6551;51.056;9.466;2024-03-06T06:03:48;97880.66;;;13.56;63.20
12973;BME280;6551;51.056;9.466;2024-03-06T06:06:18;97889.28;;;13.58;63.16
12973;BME280;6551;51.056;9.466;2024-03-06T06:08:48;97888.56;;;13.51;63.24
12973;BME280;6551;51.056;9.466;2024-03-06T06:11:15;97894.97;;;13.61;63.06
12973;BME280;6551;51.056;9.466;2024-03-06T06:13:40;97899.84;;;13.53;63.10
12973;BME280;6551;51.056;9.466;2024-03-06T06:16:06;97902.97;;;13.49;63.19
12973;BME280;6551;51.056;9.466;2024-03-06T06:18:32;97911.38;;;13.53;63.26
12973;BME280;6551;51.056;9.466;2024-03-06T06:21:00;97917.31;;;13.67;63.21
12973;BME280;6551;51.056;9.466;2024-03-06T06:23:26;97915.09;;;13.64;63.17
12973;BME280;6551;51.056;9.466;2024-03-06T06:25:52;97923.84;;;13.71;63.15
12973;BME280;6551;51.056;9.466;2024-03-06T06:28:17;97923.72;;;13.77;62.97
12973;BME280;6551;51.056;9.466;2024-03-06T06:30:45;97927.91;;;13.85;62.79
12973;BME280;6551;51.056;9.466;2024-03-06T06:33:10;97932.34;;;13.79;62.84
12973;BME280;6551;51.056;9.466;2024-03-06T06:35:36;97935.81;;;13.91;62.64
12973;BME280;6551;51.056;9.466;2024-03-06T06:38:02;97935.94;;;13.85;62.33
12973;BME280;6551;51.056;9.466;2024-03-06T06:40:28;97933.94;;;13.80;62.44
12973;BME280;6551;51.056;9.466;2024-03-06T06:42:54;97944.09;;;13.90;62.32
12973;BME280;6551;51.056;9.466;2024-03-06T06:45:21;97950.16;;;13.74;61.91
12973;BME280;6551;51.056;9.466;2024-03-06T06:47:51;97949.31;;;13.73;62.03
12973;BME280;6551;51.056;9.466;2024-03-06T06:50:17;97956.41;;;13.68;61.80
12973;BME280;6551;51.056;9.466;2024-03-06T06:52:44;97963.72;;;13.61;62.38
12973;BME280;6551;51.056;9.466;2024-03-06T06:55:09;97972.91;;;13.53;62.39
12973;BME280;6551;51.056;9.466;2024-03-06T06:57:38;97969.28;;;13.47;62.33
12973;BME280;6551;51.056;9.466;2024-03-06T07:00:07;97973.34;;;13.50;62.09
12973;BME280;6551;51.056;9.466;2024-03-06T07:02:45;97981.16;;;13.52;62.31
12973;BME280;6551;51.056;9.466;2024-03-06T07:05:11;97977.19;;;13.42;62.34
12973;BME280;6551;51.056;9.466;2024-03-06T07:07:38;97981.50;;;13.43;62.30
12973;BME280;6551;51.056;9.466;2024-03-06T07:10:05;97981.06;;;13.46;62.02
12973;BME280;6551;51.056;9.466;2024-03-06T07:12:31;97977.44;;;13.41;62.00
12973;BME280;6551;51.056;9.466;2024-03-06T07:14:58;97982.09;;;13.45;61.91
12973;BME280;6551;51.056;9.466;2024-03-06T07:17:25;97983.47;;;13.48;61.79
12973;BME280;6551;51.056;9.466;2024-03-06T07:19:51;97970.22;;;13.53;61.84
12973;BME280;6551;51.056;9.466;2024-03-06T07:22:19;97983.72;;;13.58;61.56
12973;BME280;6551;51.056;9.466;2024-03-06T07:24:45;97987.09;;;13.54;61.65
12973;BME280;6551;51.056;9.466;2024-03-06T07:27:11;97989.06;;;13.58;61.84
12973;BME280;6551;51.056;9.466;2024-03-06T07:29:38;97988.06;;;13.71;61.90
12973;BME280;6551;51.056;9.466;2024-03-06T07:32:04;97989.34;;;13.68;61.85
12973;BME280;6551;51.056;9.466;2024-03-06T07:34:33;97989.91;;;13.70;61.98
12973;BME280;6551;51.056;9.466;2024-03-06T07:36:59;97990.63;;;13.77;61.96
12973;BME280;6551;51.056;9.466;2024-03-06T07:39:25;97994.38;;;13.88;62.01
12973;BME280;6551;51.056;9.466;2024-03-06T07:41:53;97988.69;;;13.96;61.46
12973;BME280;6551;51.056;9.466;2024-03-06T07:44:19;97991.69;;;13.88;61.26
12973;BME280;6551;51.056;9.466;2024-03-06T07:46:46;98003.44;;;13.87;61.24
12973;BME280;6551;51.056;9.466;2024-03-06T07:49:12;98002.75;;;13.80;61.46
12973;BME280;6551;51.056;9.466;2024-03-06T07:51:39;98004.03;;;14.00;61.59
12973;BME280;6551;51.056;9.466;2024-03-06T07:54:06;98003.13;;;14.06;61.38
12973;BME280;6551;51.056;9.466;2024-03-06T07:56:32;98017.78;;;14.16;61.03
12973;BME280;6551;51.056;9.466;2024-03-06T07:58:57;98012.59;;;14.32;61.27
12973;BME280;6551;51.056;9.466;2024-03-06T08:01:23;98016.16;;;14.49;61.24
12973;BME280;6551;51.056;9.466;2024-03-06T08:03:49;98016.63;;;14.58;60.34
12973;BME280;6551;51.056;9.466;2024-03-06T08:06:15;98020.59;;;14.55;60.40
12973;BME280;6551;51.056;9.466;2024-03-06T08:08:42;98016.41;;;14.59;60.04
12973;BME280;6551;51.056;9.466;2024-03-06T08:11:14;98024.28;;;14.66;59.86
12973;BME280;6551;51.056;9.466;2024-03-06T08:13:41;98022.41;;;14.78;59.44
12973;BME280;6551;51.056;9.466;2024-03-06T08:16:08;98030.81;;;14.82;59.31
12973;BME280;6551;51.056;9.466;2024-03-06T08:18:35;98025.44;;;14.93;59.52
12973;BME280;6551;51.056;9.466;2024-03-06T08:21:02;98024.22;;;15.01;59.43
12973;BME280;6551;51.056;9.466;2024-03-06T08:23:30;98034.31;;;15.10;58.88
12973;BME280;6551;51.056;9.466;2024-03-06T08:25:56;98027.25;;;15.04;58.60
12973;BME280;6551;51.056;9.466;2024-03-06T08:28:22;98040.75;;;15.09;58.27
12973;BME280;6551;51.056;9.466;2024-03-06T08:30:48;98046.13;;;15.09;58.35
12973;BME280;6551;51.056;9.466;2024-03-06T08:33:14;98048.66;;;15.16;57.78
12973;BME280;6551;51.056;9.466;2024-03-06T08:35:41;98048.91;;;15.14;57.82
12973;BME280;6551;51.056;9.466;2024-03-06T08:38:07;98044.00;;;15.11;57.53
12973;BME280;6551;51.056;9.466;2024-03-06T08:40:34;98053.78;;;15.17;57.66
12973;BME280;6551;51.056;9.466;2024-03-06T08:43:00;98056.00;;;15.20;58.00
12973;BME280;6551;51.056;9.466;2024-03-06T08:45:26;98057.34;;;15.35;58.21
12973;BME280;6551;51.056;9.466;2024-03-06T08:47:51;98047.03;;;15.55;58.23
12973;BME280;6551;51.056;9.466;2024-03-06T08:50:20;98053.31;;;15.60;56.87
12973;BME280;6551;51.056;9.466;2024-03-06T08:52:48;98058.94;;;15.75;56.80
12973;BME280;6551;51.056;9.466;2024-03-06T08:55:15;98062.06;;;15.84;56.64
12973;BME280;6551;51.056;9.466;2024-03-06T08:57:42;98073.34;;;15.86;56.45
12973;BME280;6551;51.056;9.466;2024-03-06T09:00:09;98068.75;;;15.98;56.58
12973;BME280;6551;51.056;9.466;2024-03-06T09:02:40;98072.66;;;15.91;55.64
12973;BME280;6551;51.056;9.466;2024-03-06T09:05:08;98070.28;;;15.94;56.09
12973;BME280;6551;51.056;9.466;2024-03-06T09:07:36;98077.81;;;15.80;55.92
12973;BME280;6551;51.056;9.466;2024-03-06T09:10:07;98083.28;;;15.86;56.17
12973;BME280;6551;51.056;9.466;2024-03-06T09:12:33;98073.69;;;15.90;56.37
12973;BME280;6551;51.056;9.466;2024-03-06T09:15:00;98080.63;;;16.02;55.97
12973;BME280;6551;51.056;9.466;2024-03-06T09:17:27;98079.69;;;15.80;56.33
12973;BME280;6551;51.056;9.466;2024-03-06T09:19:53;98082.13;;;15.65;56.37
12973;BME280;6551;51.056;9.466;2024-03-06T09:22:19;98088.13;;;15.72;56.57
12973;BME280;6551;51.056;9.466;2024-03-06T09:24:45;98085.94;;;15.69;56.94
12973;BME280;6551;51.056;9.466;2024-03-06T09:27:10;98087.09;;;15.73;56.73
12973;BME280;6551;51.056;9.466;2024-03-06T09:29:36;98083.59;;;15.72;56.41
12973;BME280;6551;51.056;9.466;2024-03-06T09:32:02;98100.13;;;15.53;56.39
12973;BME280;6551;51.056;9.466;2024-03-06T09:34:27;98099.00;;;15.37;56.70
12973;BME280;6551;51.056;9.466;2024-03-06T09:36:53;98094.09;;;15.34;56.67
12973;BME280;6551;51.056;9.466;2024-03-06T09:39:20;98089.09;;;15.38;56.76
12973;BME280;6551;51.056;9.466;2024-03-06T09:41:51;98094.44;;;15.38;57.17
12973;BME280;6551;51.056;9.466;2024-03-06T09:44:18;98106.34;;;15.30;56.88
12973;BME280;6551;51.056;9.466;2024-03-06T09:46:47;98096.59;;;15.24;57.21
12973;BME280;6551;51.056;9.466;2024-03-06T09:49:19;98099.66;;;15.44;57.24
12973;BME280;6551;51.056;9.466;2024-03-06T09:51:47;98112.44;;;15.26;57.27
12973;BME280;6551;51.056;9.466;2024-03-06T09:54:16;98106.03;;;15.27;57.49
12973;BME280;6551;51.056;9.466;2024-03-06T09:56:46;98115.63;;;15.11;57.47
12973;BME280;6551;51.056;9.466;2024-03-06T09:59:12;98121.34;;;15.14;57.44
12973;BME280;6551;51.056;9.466;2024-03-06T10:01:49;98123.28;;;15.31;57.56
12973;BME280;6551;51.056;9.466;2024-03-06T10:04:23;98117.59;;;15.15;58.03
12973;BME280;6551;51.056;9.466;2024-03-06T10:06:57;98128.53;;;15.26;57.64
12973;BME280;6551;51.056;9.466;2024-03-06T10:09:24;98126.09;;;15.24;57.51
12973;BME280;6551;51.056;9.466;2024-03-06T10:11:50;98130.66;;;15.23;57.62
12973;BME280;6551;51.056;9.466;2024-03-06T10:14:18;98131.19;;;15.49;57.60
12973;BME280;6551;51.056;9.466;2024-03-06T10:17:10;98133.25;;;15.58;57.48
12973;BME280;6551;51.056;9.466;2024-03-06T10:19:36;98130.19;;;15.66;57.33
12973;BME280;6551;51.056;9.466;2024-03-06T10:22:06;98140.75;;;15.85;57.44
12973;BME280;6551;51.056;9.466;2024-03-06T10:24:33;98134.56;;;15.84;57.06
12973;BME280;6551;51.056;9.466;2024-03-06T10:27:00;98135.75;;;15.76;57.12
12973;BME280;6551;51.056;9.466;2024-03-06T10:29:28;98133.78;;;16.00;56.86
12973;BME280;6551;51.056;9.466;2024-03-06T10:31:56;98139.78;;;15.91;56.79
12973;BME280;6551;51.056;9.466;2024-03-06T10:34:29;98135.91;;;15.98;56.60
12973;BME280;6551;51.056;9.466;2024-03-06T10:37:03;98141.75;;;15.67;56.31
12973;BME280;6551;51.056;9.466;2024-03-06T10:39:34;98143.22;;;15.74;56.89
12973;BME280;6551;51.056;9.466;2024-03-06T10:42:02;98143.03;;;15.64;56.75
12973;BME280;6551;51.056;9.466;2024-03-06T10:44:32;98137.63;;;15.48;56.24
12973;BME280;6551;51.056;9.466;2024-03-06T10:47:05;98145.50;;;15.66;56.86
12973;BME280;6551;51.056;9.466;2024-03-06T10:49:32;98145.84;;;15.58;56.74
12973;BME280;6551;51.056;9.466;2024-03-06T10:52:04;98143.28;;;15.63;56.87
12973;BME280;6551;51.056;9.466;2024-03-06T10:54:34;98153.34;;;15.84;56.67
12973;BME280;6551;51.056;9.466;2024-03-06T10:57:01;98149.28;;;15.82;56.37
12973;BME280;6551;51.056;9.466;2024-03-06T10:59:29;98150.16;;;15.70;56.51
12973;BME280;6551;51.056;9.466;2024-03-06T11:01:59;98146.69;;;15.87;56.18
12973;BME280;6551;51.056;9.466;2024-03-06T11:04:30;98142.91;;;15.99;55.72
12973;BME280;6551;51.056;9.466;2024-03-06T11:07:03;98145.84;;;16.14;55.22
12973;BME280;6551;51.056;9.466;2024-03-06T11:09:36;98148.31;;;16.16;55.27
12973;BME280;6551;51.056;9.466;2024-03-06T11:12:07;98148.81;;;16.29;54.19
12973;BME280;6551;51.056;9.466;2024-03-06T11:14:37;98148.41;;;16.37;53.44
12973;BME280;6551;51.056;9.466;2024-03-06T11:17:09;98156.16;;;16.67;53.44
12973;BME280;6551;51.056;9.466;2024-03-06T11:28:27;98159.13;;;16.66;53.36
12973;BME280;6551;51.056;9.466;2024-03-06T11:33:53;98169.88;;;16.66;53.65
12973;BME280;6551;51.056;9.466;2024-03-06T11:36:24;98164.88;;;16.58;54.02
12973;BME280;6551;51.056;9.466;2024-03-06T11:39:04;98163.66;;;16.49;54.16
12973;BME280;6551;51.056;9.466;2024-03-06T11:41:47;98168.09;;;16.26;54.38
12973;BME280;6551;51.056;9.466;2024-03-06T11:44:21;98165.47;;;16.15;55.04
12973;BME280;6551;51.056;9.466;2024-03-06T11:46:56;98160.88;;;15.99;55.15
12973;BME280;6551;51.056;9.466;2024-03-06T11:49:25;98159.41;;;16.08;55.09
12973;BME280;6551;51.056;9.466;2024-03-06T11:51:52;98162.53;;;16.16;54.82
12973;BME280;6551;51.056;9.466;2024-03-06T11:54:18;98159.06;;;16.32;54.37
12973;BME280;6551;51.056;9.466;2024-03-06T11:56:49;98168.69;;;16.45;54.06
12973;BME280;6551;51.056;9.466;2024-03-06T11:59:27;98157.63;;;16.75;53.72
12973;BME280;6551;51.056;9.466;2024-03-06T12:01:55;98159.25;;;16.92;53.23
12973;BME280;6551;51.056;9.466;2024-03-06T12:04:21;98155.25;;;16.78;52.19
12973;BME280;6551;51.056;9.466;2024-03-06T12:06:48;98158.16;;;17.10;52.54
12973;BME280;6551;51.056;9.466;2024-03-06T12:09:14;98156.41;;;17.21;52.20
12973;BME280;6551;51.056;9.466;2024-03-06T12:11:41;98158.03;;;17.22;51.48
12973;BME280;6551;51.056;9.466;2024-03-06T12:14:14;98155.88;;;17.40;51.34
12973;BME280;6551;51.056;9.466;2024-03-06T12:16:43;98156.97;;;17.44;51.08
12973;BME280;6551;51.056;9.466;2024-03-06T12:19:10;98159.84;;;18.03;50.21
12973;BME280;6551;51.056;9.466;2024-03-06T12:21:36;98145.78;;;18.28;49.63
12973;BME280;6551;51.056;9.466;2024-03-06T12:24:08;98158.38;;;18.76;48.55
12973;BME280;6551;51.056;9.466;2024-03-06T12:26:34;98152.75;;;19.24;47.87
12973;BME280;6551;51.056;9.466;2024-03-06T12:29:08;98148.38;;;19.65;46.84
12973;BME280;6551;51.056;9.466;2024-03-06T12:31:36;98147.16;;;20.13;45.95
12973;BME280;6551;51.056;9.466;2024-03-06T12:34:03;98151.53;;;20.54;45.68
12973;BME280;6551;51.056;9.466;2024-03-06T12:36:29;98152.63;;;20.68;44.07
12973;BME280;6551;51.056;9.466;2024-03-06T12:38:58;98155.03;;;20.75;44.44
12973;BME280;6551;51.056;9.466;2024-03-06T12:41:24;98150.72;;;20.64;43.51
12973;BME280;6551;51.056;9.466;2024-03-06T12:43:52;98159.13;;;20.57;42.94
12973;BME280;6551;51.056;9.466;2024-03-06T12:46:19;98151.25;;;20.35;43.69
12973;BME280;6551;51.056;9.466;2024-03-06T12:48:45;98159.31;;;20.15;44.16
12973;BME280;6551;51.056;9.466;2024-03-06T12:51:11;98154.72;;;20.21;44.51
12973;BME280;6551;51.056;9.466;2024-03-06T12:53:37;98155.50;;;20.11;44.81
12973;BME280;6551;51.056;9.466;2024-03-06T12:56:03;98159.56;;;20.04;45.18
12973;BME280;6551;51.056;9.466;2024-03-06T12:58:29;98161.59;;;19.66;45.19
12973;BME280;6551;51.056;9.466;2024-03-06T13:00:57;98158.53;;;19.43;45.59
12973;BME280;6551;51.056;9.466;2024-03-06T13:03:23;98157.94;;;18.94;46.61
12973;BME280;6551;51.056;9.466;2024-03-06T13:05:49;98153.81;;;18.49;47.79
12973;BME280;6551;51.056;9.466;2024-03-06T13:08:15;98164.63;;;18.49;47.86
12973;BME280;6551;51.056;9.466;2024-03-06T13:10:42;98161.63;;;18.19;47.88
12973;BME280;6551;51.056;9.466;2024-03-06T13:13:08;98163.66;;;18.07;48.57
12973;BME280;6551;51.056;9.466;2024-03-06T13:15:34;98160.19;;;17.63;49.16
12973;BME280;6551;51.056;9.466;2024-03-06T13:18:00;98155.81;;;17.79;49.36
12973;BME280;6551;51.056;9.466;2024-03-06T13:20:30;98169.22;;;17.95;49.40
12973;BME280;6551;51.056;9.466;2024-03-06T13:22:56;98161.84;;;17.91;48.80